createdAt,value
2017-02-15T00:00:36.041Z,63.45
2017-02-15T00:01:46.416Z,63.07
2017-02-15T00:02:56.658Z,63.35
2017-02-15T00:04:06.509Z,63.26
2017-02-15T00:05:16.374Z,63.07
2017-02-15T00:06:26.462Z,63.07
2017-02-15T00:07:36.715Z,63.26
2017-02-15T00:08:46.622Z,62.59
2017-02-15T00:09:56.906Z,63.16
2017-02-15T00:11:06.790Z,63.07
2017-02-15T00:12:17.461Z,62.97
2017-02-15T00:13:27.820Z,62.59
2017-02-15T00:14:37.745Z,62.69
2017-02-15T00:15:48.001Z,62.5
2017-02-15T00:16:57.462Z,62.5
2017-02-15T00:18:07.577Z,62.59
2017-02-15T00:19:17.509Z,62.59
2017-02-15T00:20:27.815Z,62.59
2017-02-15T00:21:37.324Z,62.59
2017-02-15T00:22:47.175Z,62.5
2017-02-15T00:23:57.719Z,62.31
2017-02-15T00:25:07.722Z,62.59
2017-02-15T00:26:17.975Z,62.59
2017-02-15T00:27:27.421Z,62.88
2017-02-15T00:28:37.272Z,62.78
2017-02-15T00:29:47.860Z,62.59
2017-02-15T00:30:57.707Z,62.78
2017-02-15T00:32:07.943Z,62.31
2017-02-15T00:33:17.800Z,62.4
2017-02-15T00:34:27.639Z,62.88
2017-02-15T00:35:37.816Z,62.78
2017-02-15T00:36:47.710Z,62.5
2017-02-15T00:37:57.551Z,62.97
2017-02-15T00:39:07.896Z,62.59
2017-02-15T00:40:18.167Z,63.16
2017-02-15T00:41:27.918Z,63.07
2017-02-15T00:42:37.768Z,62.94
2017-02-15T00:43:46.817Z,63.42
2017-02-15T00:44:57.124Z,63.6
2017-02-15T00:46:07.390Z,63.6
2017-02-15T00:47:17.490Z,63.42
2017-02-15T00:48:27.737Z,63.51
2017-02-15T00:49:38.179Z,63.42
2017-02-15T00:50:47.642Z,63.51
2017-02-15T00:51:58.195Z,63.42
2017-02-15T00:53:08.733Z,63.51
2017-02-15T00:54:18.182Z,63.13
2017-02-15T00:55:27.704Z,63.32
2017-02-15T00:56:37.567Z,63.79
2017-02-15T00:57:47.144Z,63.6
2017-02-15T00:58:57.249Z,63.51
2017-02-15T01:00:07.283Z,63.04
2017-02-15T01:01:17.551Z,63.13
2017-02-15T01:02:27.910Z,63.7
2017-02-15T01:03:38.152Z,63.13
2017-02-15T01:04:48.657Z,63.26
2017-02-15T01:05:58.573Z,63.32
2017-02-15T01:07:08.079Z,63.32
2017-02-15T01:08:18.336Z,63.13
2017-02-15T01:09:28.189Z,63.23
2017-02-15T01:10:38.024Z,63.23
2017-02-15T01:11:47.919Z,62.94
2017-02-15T01:12:57.806Z,63.13
2017-02-15T01:14:08.073Z,63.23
2017-02-15T01:15:17.561Z,63.32
2017-02-15T01:16:27.272Z,63.32
2017-02-15T01:17:37.536Z,63.23
2017-02-15T01:18:47.410Z,63.32
2017-02-15T01:19:56.878Z,63.42
2017-02-15T01:21:06.356Z,63.42
2017-02-15T01:22:16.514Z,63.32
2017-02-15T01:23:26.029Z,63.42
2017-02-15T01:24:35.874Z,63.7
2017-02-15T01:25:46.152Z,63.6
2017-02-15T01:26:55.255Z,63.23
2017-02-15T01:28:05.410Z,63.98
2017-02-15T01:29:15.349Z,64.45
2017-02-15T01:30:25.740Z,64.07
2017-02-15T01:31:35.588Z,64.36
2017-02-15T01:32:45.829Z,64.26
2017-02-15T01:33:56.371Z,64.07
2017-02-15T01:35:06.199Z,64.07
2017-02-15T01:36:16.070Z,64.07
2017-02-15T01:37:26.483Z,64.07
2017-02-15T01:38:35.964Z,64.17
2017-02-15T01:39:46.193Z,64.26
2017-02-15T01:40:56.437Z,64.17
2017-02-15T01:42:06.714Z,64.17
2017-02-15T01:43:17.095Z,64.17
2017-02-15T01:44:26.952Z,64.17
2017-02-15T01:45:37.055Z,63.98
2017-02-15T01:46:47.296Z,64.07
2017-02-15T01:47:57.153Z,64.17
2017-02-15T01:49:07.394Z,64.26
2017-02-15T01:50:17.675Z,63.98
2017-02-15T01:51:27.779Z,64.07
2017-02-15T01:52:38.101Z,63.7
2017-02-15T01:53:47.939Z,64.07
2017-02-15T01:54:58.322Z,63.98
2017-02-15T01:56:08.275Z,63.79
2017-02-15T01:57:18.777Z,63.98
2017-02-15T01:58:29.013Z,64.07
2017-02-15T01:59:39.352Z,63.89
2017-02-15T02:00:48.847Z,64.36
2017-02-15T02:01:59.117Z,64.07
2017-02-15T02:03:08.428Z,63.98
2017-02-15T02:04:18.288Z,64.64
2017-02-15T02:05:28.525Z,64.26
2017-02-15T02:06:38.417Z,64.55
2017-02-15T02:07:48.669Z,64.83
2017-02-15T02:08:58.419Z,64.83
2017-02-15T02:10:08.069Z,64.83
2017-02-15T02:11:17.944Z,64.93
2017-02-15T02:12:27.824Z,64.74
2017-02-15T02:13:37.715Z,64.74
2017-02-15T02:14:47.543Z,64.83
2017-02-15T02:15:57.038Z,65.31
2017-02-15T02:17:07.288Z,65.12
2017-02-15T02:18:17.141Z,65.12
2017-02-15T02:19:27.115Z,65.31
2017-02-15T02:20:37.640Z,65.02
2017-02-15T02:21:47.904Z,64.74
2017-02-15T02:22:57.544Z,64.74
2017-02-15T02:24:07.459Z,65.21
2017-02-15T02:25:17.840Z,65.28
2017-02-15T02:26:27.998Z,65.09
2017-02-15T02:27:38.254Z,65.37
2017-02-15T02:28:48.103Z,65.28
2017-02-15T02:29:57.990Z,65.47
2017-02-15T02:31:07.901Z,65.47
2017-02-15T02:32:18.411Z,65.37
2017-02-15T02:33:27.879Z,65.66
2017-02-15T02:34:38.121Z,65.56
2017-02-15T02:35:48.369Z,66.03
2017-02-15T02:36:58.260Z,66.03
2017-02-15T02:38:08.383Z,66.22
2017-02-15T02:39:18.770Z,66.88
2017-02-15T02:40:29.085Z,66.5
2017-02-15T02:41:39.324Z,66.98
2017-02-15T02:42:49.208Z,66.88
2017-02-15T02:43:58.914Z,67.13
2017-02-15T02:45:09.183Z,67.26
2017-02-15T02:46:19.043Z,67.6
2017-02-15T02:47:29.286Z,67.13
2017-02-15T02:48:39.137Z,67.32
2017-02-15T02:49:49.643Z,67.7
2017-02-15T02:50:59.084Z,67.79
2017-02-15T02:52:08.974Z,68.08
2017-02-15T02:53:19.261Z,67.79
2017-02-15T02:54:29.100Z,67.98
2017-02-15T02:55:38.903Z,67.89
2017-02-15T02:56:49.158Z,67.98
2017-02-15T02:57:59.398Z,68.17
2017-02-15T02:59:09.762Z,67.98
2017-02-15T03:00:20.010Z,68.46
2017-02-15T03:01:30.220Z,68.46
2017-02-15T03:02:40.482Z,68.27
2017-02-15T03:03:50.762Z,68.46
2017-02-15T03:05:01.018Z,68.36
2017-02-15T03:06:10.942Z,68.46
2017-02-15T03:07:20.637Z,68.46
2017-02-15T03:08:30.091Z,68.74
2017-02-15T03:09:40.330Z,69.02
2017-02-15T03:10:50.572Z,68.74
2017-02-15T03:12:00.030Z,69.4
2017-02-15T03:13:10.166Z,69.31
2017-02-15T03:14:20.527Z,69.21
2017-02-15T03:15:30.004Z,69.4
2017-02-15T03:16:40.296Z,69.78
2017-02-15T03:17:50.145Z,69.12
2017-02-15T03:19:00.316Z,69.4
2017-02-15T03:20:10.615Z,69.4
2017-02-15T03:21:20.863Z,69.97
2017-02-15T03:22:30.774Z,69.68
2017-02-15T03:23:41.175Z,69.68
2017-02-15T03:24:51.683Z,69.59
2017-02-15T03:26:01.533Z,69.68
2017-02-15T03:27:11.404Z,69.59
2017-02-15T03:28:21.239Z,70.16
2017-02-15T03:29:31.493Z,70.06
2017-02-15T03:30:41.205Z,70.25
2017-02-15T03:31:51.450Z,70.06
2017-02-15T03:33:01.343Z,70.06
2017-02-15T03:34:11.666Z,70.54
2017-02-15T03:35:21.172Z,70.25
2017-02-15T03:36:31.681Z,70.16
2017-02-15T03:37:42.028Z,69.97
2017-02-15T03:38:51.869Z,70.16
2017-02-15T03:40:02.160Z,69.78
2017-02-15T03:41:12.114Z,70.16
2017-02-15T03:42:22.679Z,69.78
2017-02-15T03:43:32.156Z,69.59
2017-02-15T03:44:42.440Z,70.35
2017-02-15T03:45:52.699Z,70.54
2017-02-15T03:47:02.126Z,70.35
2017-02-15T03:48:12.656Z,70.54
2017-02-15T03:49:22.937Z,70.35
2017-02-15T03:50:33.281Z,70.35
2017-02-15T03:51:43.677Z,70.16
2017-02-15T03:52:53.125Z,69.68
2017-02-15T03:54:03.722Z,69.97
2017-02-15T03:55:14.067Z,69.87
2017-02-15T03:56:24.312Z,69.68
2017-02-15T03:57:33.774Z,69.59
2017-02-15T03:58:43.603Z,69.59
2017-02-15T03:59:54.125Z,69.12
2017-02-15T04:01:04.445Z,69.21
2017-02-15T04:02:14.765Z,69.49
2017-02-15T04:03:25.073Z,69.12
2017-02-15T04:04:34.989Z,69.21
2017-02-15T04:05:44.666Z,69.4
2017-02-15T04:06:54.567Z,69.49
2017-02-15T04:08:04.868Z,69.49
2017-02-15T04:09:15.146Z,69.78
2017-02-15T04:10:25.395Z,69.97
2017-02-15T04:11:35.927Z,69.68
2017-02-15T04:12:46.549Z,69.87
2017-02-15T04:13:56.855Z,69.53
2017-02-15T04:15:06.751Z,69.49
2017-02-15T04:16:17.045Z,69.63
2017-02-15T04:17:27.535Z,70.01
2017-02-15T04:18:36.970Z,69.44
2017-02-15T04:19:46.848Z,69.25
2017-02-15T04:20:56.976Z,69.44
2017-02-15T04:22:06.407Z,69.44
2017-02-15T04:23:16.505Z,69.53
2017-02-15T04:24:26.385Z,69.44
2017-02-15T04:25:36.632Z,69.06
2017-02-15T04:26:46.104Z,68.87
2017-02-15T04:27:55.983Z,68.59
2017-02-15T04:29:06.298Z,68.77
2017-02-15T04:30:16.630Z,68.77
2017-02-15T04:31:26.585Z,68.59
2017-02-15T04:32:36.835Z,68.68
2017-02-15T04:33:47.165Z,68.3
2017-02-15T04:34:57.283Z,67.64
2017-02-15T04:36:07.140Z,68.02
2017-02-15T04:37:17.381Z,67.83
2017-02-15T04:38:27.258Z,68.21
2017-02-15T04:39:36.811Z,68.02
2017-02-15T04:40:46.502Z,67.83
2017-02-15T04:41:55.963Z,68.02
2017-02-15T04:43:05.816Z,67.93
2017-02-15T04:44:15.261Z,68.02
2017-02-15T04:45:25.520Z,67.83
2017-02-15T04:46:36.017Z,68.21
2017-02-15T04:47:45.938Z,68.49
2017-02-15T04:48:56.198Z,68.49
2017-02-15T04:50:05.660Z,68.4
2017-02-15T04:51:15.896Z,68.3
2017-02-15T04:52:26.394Z,68.02
2017-02-15T04:53:36.250Z,68.21
2017-02-15T04:54:46.804Z,68.68
2017-02-15T04:55:56.318Z,69.06
2017-02-15T04:57:06.187Z,68.87
2017-02-15T04:58:16.687Z,69.15
2017-02-15T04:59:26.545Z,68.96
2017-02-15T05:00:36.394Z,68.87
2017-02-15T05:01:45.924Z,68.96
2017-02-15T05:02:54.982Z,68.87
2017-02-15T05:04:05.136Z,68.59
2017-02-15T05:05:15.189Z,68.59
2017-02-15T05:06:25.029Z,68.3
2017-02-15T05:07:35.444Z,68.21
2017-02-15T05:08:45.684Z,68.4
2017-02-15T05:09:56.248Z,68.3
2017-02-15T05:11:06.539Z,67.93
2017-02-15T05:12:16.409Z,67.64
2017-02-15T05:13:26.293Z,68.02
2017-02-15T05:14:36.552Z,67.93
2017-02-15T05:15:46.658Z,68.21
2017-02-15T05:16:56.142Z,68.12
2017-02-15T05:18:05.651Z,67.64
2017-02-15T05:19:15.909Z,68.49
2017-02-15T05:20:26.152Z,68.49
2017-02-15T05:21:36.249Z,68.49
2017-02-15T05:22:45.702Z,68.3
2017-02-15T05:23:56.006Z,68.49
2017-02-15T05:25:05.840Z,68.4
2017-02-15T05:26:15.825Z,68.49
2017-02-15T05:27:26.303Z,68.3
2017-02-15T05:28:35.766Z,68.4
2017-02-15T05:29:45.202Z,68.49
2017-02-15T05:30:55.080Z,68.49
2017-02-15T05:32:04.923Z,68.65
2017-02-15T05:33:15.427Z,69.15
2017-02-15T05:34:25.734Z,68.87
2017-02-15T05:35:35.215Z,68.96
2017-02-15T05:36:45.080Z,69.06
2017-02-15T05:37:54.936Z,68.77
2017-02-15T05:39:05.484Z,69.31
2017-02-15T05:40:14.994Z,69.4
2017-02-15T05:41:24.449Z,69.31
2017-02-15T05:42:33.939Z,69.49
2017-02-15T05:43:44.202Z,69.34
2017-02-15T05:44:54.322Z,69.49
2017-02-15T05:46:04.403Z,69.59
2017-02-15T05:47:13.861Z,69.78
2017-02-15T05:48:23.709Z,70.16
2017-02-15T05:49:33.561Z,70.25
2017-02-15T05:50:44.122Z,70.06
2017-02-15T05:51:54.396Z,69.59
2017-02-15T05:53:04.764Z,69.78
2017-02-15T05:54:14.603Z,70.16
2017-02-15T05:55:24.871Z,70.16
2017-02-15T05:56:35.375Z,69.97
2017-02-15T05:57:44.828Z,70.35
2017-02-15T05:58:54.680Z,70.54
2017-02-15T06:00:04.711Z,70.54
2017-02-15T06:01:15.003Z,70.25
2017-02-15T06:02:25.159Z,70.44
2017-02-15T06:03:35.404Z,70.63
2017-02-15T06:04:45.346Z,70.92
2017-02-15T06:05:54.796Z,70.82
2017-02-15T06:07:04.656Z,71.39
2017-02-15T06:08:14.750Z,71.2
2017-02-15T06:09:24.615Z,71.3
2017-02-15T06:10:34.086Z,71.3
2017-02-15T06:11:44.338Z,71.3
2017-02-15T06:12:54.188Z,71.48
2017-02-15T06:14:04.814Z,71.01
2017-02-15T06:15:15.213Z,70.92
2017-02-15T06:16:24.716Z,70.92
2017-02-15T06:17:34.958Z,71.01
2017-02-15T06:18:44.459Z,71.39
2017-02-15T06:19:55.013Z,71.01
2017-02-15T06:21:05.287Z,71.01
2017-02-15T06:22:15.159Z,71.01
2017-02-15T06:23:25.012Z,70.92
2017-02-15T06:24:35.307Z,70.92
2017-02-15T06:25:45.820Z,71.01
2017-02-15T06:26:55.717Z,71.11
2017-02-15T06:28:05.556Z,71.01
2017-02-15T06:29:15.582Z,70.92
2017-02-15T06:30:25.848Z,71.39
2017-02-15T06:31:35.598Z,71.11
2017-02-15T06:32:45.984Z,71.2
2017-02-15T06:33:55.823Z,71.2
2017-02-15T06:35:05.697Z,71.77
2017-02-15T06:36:16.043Z,71.39
2017-02-15T06:37:26.629Z,71.2
2017-02-15T06:38:36.887Z,71.01
2017-02-15T06:39:46.350Z,72.05
2017-02-15T06:40:55.427Z,72.05
2017-02-15T06:42:05.368Z,71.58
2017-02-15T06:43:15.521Z,71.95
2017-02-15T06:44:25.485Z,71.95
2017-02-15T06:45:35.774Z,71.67
2017-02-15T06:46:46.025Z,71.58
2017-02-15T06:47:55.853Z,71.58
2017-02-15T06:49:06.340Z,71.67
2017-02-15T06:50:16.685Z,71.86
2017-02-15T06:51:26.929Z,71.86
2017-02-15T06:52:36.368Z,71.48
2017-02-15T06:53:46.660Z,71.77
2017-02-15T06:54:56.808Z,71.77
2017-02-15T06:56:07.116Z,72.24
2017-02-15T06:57:16.582Z,72.14
2017-02-15T06:58:26.431Z,71.67
2017-02-15T06:59:36.346Z,72.05
2017-02-15T07:00:46.480Z,72.43
2017-02-15T07:01:56.403Z,71.67
2017-02-15T07:03:06.281Z,72.05
2017-02-15T07:04:15.733Z,72.33
2017-02-15T07:05:25.709Z,72.52
2017-02-15T07:06:35.788Z,72.52
2017-02-15T07:07:46.042Z,72.24
2017-02-15T07:08:56.306Z,72.24
2017-02-15T07:10:06.263Z,72.62
2017-02-15T07:11:16.220Z,71.95
2017-02-15T07:12:26.311Z,71.58
2017-02-15T07:13:36.587Z,71.33
2017-02-15T07:14:47.103Z,70.67
2017-02-15T07:15:57.573Z,69.47
2017-02-15T07:17:06.655Z,68.18
2017-02-15T07:18:16.791Z,67.61
2017-02-15T07:19:27.076Z,65.94
2017-02-15T07:20:37.403Z,64.81
2017-02-15T07:21:47.270Z,62.94
2017-02-15T07:22:57.610Z,62.37
2017-02-15T07:24:08.242Z,62.88
2017-02-15T07:25:18.554Z,62.15
2017-02-15T07:26:28.421Z,61.39
2017-02-15T07:27:38.722Z,59.78
2017-02-15T07:28:49.102Z,59.11
2017-02-15T07:29:59.231Z,58.67
2017-02-15T07:31:09.484Z,57.53
2017-02-15T07:32:18.531Z,56.7
2017-02-15T07:33:28.869Z,55.66
2017-02-15T07:34:39.131Z,53.12
2017-02-15T07:35:48.843Z,53.97
2017-02-15T07:36:58.769Z,53.81
2017-02-15T07:38:08.619Z,51.72
2017-02-15T07:39:19.020Z,50.01
2017-02-15T07:40:29.199Z,50.96
2017-02-15T07:41:39.106Z,51.18
2017-02-15T07:42:49.723Z,49.56
2017-02-15T07:44:00.275Z,48.32
2017-02-15T07:45:11.201Z,47.87
2017-02-15T07:46:21.715Z,46.35
2017-02-15T07:47:32.496Z,45.59
2017-02-15T07:48:43.540Z,46.44
2017-02-15T07:49:54.507Z,45.04
2017-02-15T07:51:05.411Z,45.51
2017-02-15T07:52:15.551Z,44.96
2017-02-15T07:53:26.004Z,44.2
2017-02-15T07:54:36.530Z,43.94
2017-02-15T07:55:48.416Z,43.37
2017-02-15T07:56:58.992Z,42.51
2017-02-15T07:58:09.127Z,42.44
2017-02-15T07:59:20.338Z,42.44
2017-02-15T08:00:30.497Z,41.67
2017-02-15T08:01:40.665Z,41.67
2017-02-15T08:02:51.179Z,40.93
2017-02-15T08:04:01.662Z,40.64
2017-02-15T08:05:13.393Z,39.12
2017-02-15T08:06:23.591Z,38.83
2017-02-15T08:07:34.764Z,39.5
2017-02-15T08:08:44.904Z,39.14
2017-02-15T08:09:55.440Z,38.28
2017-02-15T08:11:06.794Z,37.99
2017-02-15T08:12:16.923Z,37.8
2017-02-15T08:13:27.906Z,36.87
2017-02-15T08:14:38.422Z,36.87
2017-02-15T08:15:48.592Z,36.29
2017-02-15T08:16:59.374Z,36.29
2017-02-15T08:18:09.565Z,35.53
2017-02-15T08:19:20.115Z,34.2
2017-02-15T08:20:30.662Z,34.3
2017-02-15T08:21:41.234Z,33.83
2017-02-15T08:22:52.455Z,34.01
2017-02-15T08:24:04.112Z,33.56
2017-02-15T08:25:15.215Z,32.7
2017-02-15T08:26:26.223Z,33.07
2017-02-15T08:27:38.391Z,32.7
2017-02-15T08:28:49.615Z,32.5
2017-02-15T08:30:00.138Z,31.18
2017-02-15T08:31:10.678Z,30.61
2017-02-15T08:32:21.630Z,30.59
2017-02-15T08:33:31.766Z,31.27
2017-02-15T08:34:42.945Z,30.8
2017-02-15T08:35:53.188Z,29.65
2017-02-15T08:37:04.215Z,29.74
2017-02-15T08:38:16.288Z,29.66
2017-02-15T08:39:27.295Z,29.66
2017-02-15T08:40:36.839Z,29.47
2017-02-15T08:41:47.806Z,28.8
2017-02-15T08:42:58.772Z,28.99
2017-02-15T08:44:09.375Z,28.05
2017-02-15T08:45:20.312Z,28.34
2017-02-15T08:46:31.158Z,28.34
2017-02-15T08:47:42.385Z,27.19
2017-02-15T08:48:52.965Z,27.49
2017-02-15T08:50:03.558Z,27.2
2017-02-15T08:51:14.118Z,27.31
2017-02-15T08:52:25.331Z,25.68
2017-02-15T08:53:36.841Z,25.59
2017-02-15T08:54:47.298Z,25.78
2017-02-15T08:55:58.340Z,25.59
2017-02-15T08:57:08.520Z,25.6
2017-02-15T08:58:19.702Z,25.31
2017-02-15T08:59:30.777Z,25.42
2017-02-15T09:00:41.339Z,24.94
2017-02-15T09:01:52.291Z,24.76
2017-02-15T09:03:03.032Z,24.76
2017-02-15T09:04:14.232Z,24.48
2017-02-15T09:05:25.177Z,24.48
2017-02-15T09:06:35.266Z,23.99
2017-02-15T09:07:46.200Z,23.42
2017-02-15T09:08:57.117Z,23.71
2017-02-15T09:10:07.902Z,21.88
2017-02-15T09:11:18.496Z,21.99
2017-02-15T09:12:29.474Z,21.61
2017-02-15T09:13:40.053Z,22.18
2017-02-15T09:14:51.592Z,22.95
2017-02-15T09:16:02.418Z,22.66
2017-02-15T09:17:13.391Z,22.19
2017-02-15T09:18:23.524Z,22.19
2017-02-15T09:19:34.071Z,21.34
2017-02-15T09:20:44.609Z,21.34
2017-02-15T09:21:54.586Z,21.05
2017-02-15T09:23:06.559Z,21.05
2017-02-15T09:24:17.498Z,20.29
2017-02-15T09:25:27.620Z,20.97
2017-02-15T09:26:38.608Z,20.68
2017-02-15T09:27:49.531Z,20.97
2017-02-15T09:29:00.582Z,20.5
2017-02-15T09:30:12.528Z,20.01
2017-02-15T09:31:22.722Z,19.92
2017-02-15T09:32:33.669Z,20.3
2017-02-15T09:33:44.512Z,20.3
2017-02-15T09:34:55.438Z,19.82
2017-02-15T09:36:06.032Z,19.92
2017-02-15T09:37:17.927Z,19.53
2017-02-15T09:38:28.526Z,19.9
2017-02-15T09:39:39.467Z,20.3
2017-02-15T09:40:50.015Z,19.53
2017-02-15T09:42:00.157Z,20.01
2017-02-15T09:43:11.121Z,19.82
2017-02-15T09:44:21.745Z,20
2017-02-15T09:45:33.050Z,19.9
2017-02-15T09:46:43.396Z,19.92
2017-02-15T09:47:54.363Z,19.9
2017-02-15T09:49:04.083Z,19.81
2017-02-15T09:50:15.053Z,19.9
2017-02-15T09:51:25.963Z,19.81
2017-02-15T09:52:36.521Z,19.81
2017-02-15T09:53:48.514Z,19.13
2017-02-15T09:54:59.608Z,19.8
2017-02-15T09:56:09.706Z,18.95
2017-02-15T09:57:20.296Z,19.43
2017-02-15T09:58:31.833Z,19.9
2017-02-15T09:59:42.989Z,19.81
2017-02-15T10:00:53.586Z,19.61
2017-02-15T10:02:04.126Z,20.67
2017-02-15T10:03:15.348Z,20.67
2017-02-15T10:04:26.326Z,20.86
2017-02-15T10:05:36.523Z,20.86
2017-02-15T10:06:46.198Z,20.37
2017-02-15T10:07:56.713Z,20.95
2017-02-15T10:09:07.928Z,20.65
2017-02-15T10:10:18.884Z,19.8
2017-02-15T10:11:29.467Z,20.28
2017-02-15T10:12:40.035Z,20.37
2017-02-15T10:13:50.604Z,19.7
2017-02-15T10:15:01.918Z,19.21
2017-02-15T10:16:12.583Z,19.89
2017-02-15T10:17:23.122Z,19.5
2017-02-15T10:18:33.253Z,19.88
2017-02-15T10:19:44.261Z,20.36
2017-02-15T10:20:55.072Z,21.03
2017-02-15T10:22:05.250Z,21.04
2017-02-15T10:23:15.018Z,21.23
2017-02-15T10:24:25.635Z,20.85
2017-02-15T10:25:36.169Z,20.95
2017-02-15T10:26:47.001Z,20.28
2017-02-15T10:27:57.991Z,19.8
2017-02-15T10:29:09.113Z,20.18
2017-02-15T10:30:20.082Z,19.62
2017-02-15T10:31:31.050Z,19.71
2017-02-15T10:32:42.240Z,19.33
2017-02-15T10:33:52.778Z,19.13
2017-02-15T10:35:03.348Z,19.71
2017-02-15T10:36:14.298Z,18.76
2017-02-15T10:37:25.847Z,19.05
2017-02-15T10:38:37.128Z,18.48
2017-02-15T10:39:47.685Z,18.28
2017-02-15T10:40:58.167Z,18.66
2017-02-15T10:42:09.142Z,18.08
2017-02-15T10:43:19.418Z,18.38
2017-02-15T10:44:30.617Z,18.95
2017-02-15T10:45:41.579Z,18.38
2017-02-15T10:46:52.118Z,18.48
2017-02-15T10:48:03.052Z,18.95
2017-02-15T10:49:13.666Z,18.77
2017-02-15T10:50:24.879Z,18.28
2017-02-15T10:51:35.909Z,17.81
2017-02-15T10:52:46.473Z,17.61
2017-02-15T10:53:57.985Z,17.52
2017-02-15T10:55:09.015Z,17.82
2017-02-15T10:56:19.351Z,16.85
2017-02-15T10:57:30.393Z,18.29
2017-02-15T10:58:41.448Z,18
2017-02-15T10:59:51.527Z,17.9
2017-02-15T11:01:02.130Z,17.9
2017-02-15T11:02:13.448Z,17.9
2017-02-15T11:03:24.967Z,18
2017-02-15T11:04:35.912Z,18.19
2017-02-15T11:05:46.013Z,18.1
2017-02-15T11:06:57.012Z,18.1
2017-02-15T11:08:07.404Z,18.19
2017-02-15T11:09:18.004Z,18.19
2017-02-15T11:10:29.098Z,17.99
2017-02-15T11:11:39.663Z,18.28
2017-02-15T11:12:50.649Z,18.18
2017-02-15T11:14:01.579Z,18.29
2017-02-15T11:15:12.084Z,18.1
2017-02-15T11:16:22.670Z,17.52
2017-02-15T11:17:34.677Z,17.71
2017-02-15T11:18:45.774Z,17.13
2017-02-15T11:19:56.182Z,17.61
2017-02-15T11:21:07.225Z,17.7
2017-02-15T11:22:17.393Z,17.81
2017-02-15T11:23:28.058Z,17.7
2017-02-15T11:24:38.631Z,17.7
2017-02-15T11:25:49.874Z,17.51
2017-02-15T11:27:00.384Z,17.52
2017-02-15T11:28:10.863Z,17.52
2017-02-15T11:29:22.431Z,17.52
2017-02-15T11:30:32.085Z,17.71
2017-02-15T11:32:14.972Z,17.81
2017-02-15T11:33:25.467Z,17.99
2017-02-15T11:34:35.816Z,18.28
2017-02-15T11:35:46.150Z,18.08
2017-02-15T11:36:56.405Z,18.66
2017-02-15T11:38:06.732Z,18.95
2017-02-15T11:39:16.625Z,18.95
2017-02-15T11:40:26.948Z,18.56
2017-02-15T11:41:36.856Z,18.66
2017-02-15T11:42:47.514Z,18.28
2017-02-15T11:43:57.825Z,18.18
2017-02-15T11:45:07.358Z,18.08
2017-02-15T11:46:16.829Z,18.57
2017-02-15T11:47:27.121Z,18.18
2017-02-15T11:48:37.272Z,18.08
2017-02-15T11:49:47.163Z,18.38
2017-02-15T11:50:57.456Z,18.57
2017-02-15T11:52:07.863Z,18.57
2017-02-15T11:53:17.402Z,18.66
2017-02-15T11:54:28.017Z,18.86
2017-02-15T11:55:38.316Z,19.13
2017-02-15T11:56:48.638Z,18.86
2017-02-15T11:57:58.578Z,18.66
2017-02-15T11:59:08.845Z,19.04
2017-02-15T12:00:19.029Z,19.43
2017-02-15T12:01:29.399Z,19.13
2017-02-15T12:02:39.700Z,19.23
2017-02-15T12:03:49.973Z,18.66
2017-02-15T12:04:59.864Z,18.95
2017-02-15T12:06:10.400Z,18.95
2017-02-15T12:07:20.789Z,18.75
2017-02-15T12:08:30.711Z,18.95
2017-02-15T12:09:41.029Z,18.95
2017-02-15T12:10:50.531Z,18.66
2017-02-15T12:12:01.087Z,18.66
2017-02-15T12:13:10.945Z,18.76
2017-02-15T12:14:21.238Z,18.95
2017-02-15T12:15:31.580Z,18.95
2017-02-15T12:16:41.460Z,19.04
2017-02-15T12:17:52.120Z,18.86
2017-02-15T12:19:02.425Z,19.33
2017-02-15T12:20:12.309Z,19.04
2017-02-15T12:21:22.268Z,18.75
2017-02-15T12:22:32.548Z,19.23
2017-02-15T12:23:42.703Z,19.05
2017-02-15T12:24:52.614Z,18.86
2017-02-15T12:26:02.497Z,18.95
2017-02-15T12:27:12.382Z,19.05
2017-02-15T12:28:22.273Z,18.86
2017-02-15T12:29:32.461Z,18.95
2017-02-15T12:30:41.953Z,19.05
2017-02-15T12:31:51.474Z,18.38
2017-02-15T12:33:01.430Z,18.57
2017-02-15T12:34:10.570Z,18.08
2017-02-15T12:35:20.312Z,18.48
2017-02-15T12:36:30.670Z,18.86
2017-02-15T12:37:40.592Z,18.08
2017-02-15T12:38:50.513Z,18.28
2017-02-15T12:40:00.413Z,18.18
2017-02-15T12:41:10.532Z,17.71
2017-02-15T12:42:20.848Z,17.13
2017-02-15T12:43:31.121Z,16.56
2017-02-15T12:44:41.534Z,17.03
2017-02-15T12:45:51.117Z,17.52
2017-02-15T12:47:01.238Z,17.13
2017-02-15T12:48:11.154Z,16.94
2017-02-15T12:49:21.042Z,17.03
2017-02-15T12:50:30.906Z,17.03
2017-02-15T12:51:41.228Z,16.93
2017-02-15T12:52:51.737Z,17.03
2017-02-15T12:54:02.077Z,17.32
2017-02-15T12:55:12.347Z,16.93
2017-02-15T12:56:22.619Z,16.93
2017-02-15T12:57:32.116Z,17.59
2017-02-15T12:58:42.647Z,17.69
2017-02-15T12:59:52.921Z,17.69
2017-02-15T13:01:02.835Z,17.6
2017-02-15T13:02:13.179Z,16.73
2017-02-15T13:03:23.071Z,17.01
2017-02-15T13:04:32.794Z,16.92
2017-02-15T13:05:42.264Z,18.16
2017-02-15T13:06:52.644Z,18.07
2017-02-15T13:08:02.939Z,18.36
2017-02-15T13:09:13.233Z,18.46
2017-02-15T13:10:23.355Z,18.55
2017-02-15T13:11:33.644Z,18.83
2017-02-15T13:12:43.952Z,18.93
2017-02-15T13:13:54.313Z,19.02
2017-02-15T13:15:03.780Z,19.02
2017-02-15T13:16:13.531Z,19.5
2017-02-15T13:17:23.392Z,19.31
2017-02-15T13:18:33.286Z,19.31
2017-02-15T13:19:43.584Z,19.4
2017-02-15T13:20:53.066Z,19.5
2017-02-15T13:22:03.232Z,19.49
2017-02-15T13:23:13.594Z,19.68
2017-02-15T13:24:23.490Z,19.59
2017-02-15T13:25:33.804Z,20.07
2017-02-15T13:26:43.732Z,19.78
2017-02-15T13:27:53.908Z,20.26
2017-02-15T13:29:04.222Z,20.44
2017-02-15T13:30:14.121Z,20.35
2017-02-15T13:31:24.006Z,20.83
2017-02-15T13:32:33.911Z,20.92
2017-02-15T13:33:44.486Z,21.11
2017-02-15T13:34:54.385Z,21.49
2017-02-15T13:36:04.732Z,21.49
2017-02-15T13:37:15.026Z,21.87
2017-02-15T13:38:25.287Z,22.16
2017-02-15T13:39:34.999Z,22.24
2017-02-15T13:40:44.890Z,22.63
2017-02-15T13:41:55.240Z,22.91
2017-02-15T13:43:05.167Z,23.19
2017-02-15T13:44:15.469Z,23.48
2017-02-15T13:45:26.002Z,23.38
2017-02-15T13:46:36.398Z,23.67
2017-02-15T13:47:46.693Z,23.19
2017-02-15T13:48:56.956Z,23.86
2017-02-15T13:50:06.885Z,24.15
2017-02-15T13:51:17.197Z,24.34
2017-02-15T13:52:27.129Z,24.04
2017-02-15T13:53:37.425Z,24.62
2017-02-15T13:54:47.303Z,24.23
2017-02-15T13:55:57.729Z,24.62
2017-02-15T13:57:07.583Z,24.7
2017-02-15T13:58:17.923Z,24.89
2017-02-15T13:59:27.794Z,25.27
2017-02-15T14:00:37.357Z,25.27
2017-02-15T14:01:47.645Z,25.55
2017-02-15T14:02:57.461Z,25.65
2017-02-15T14:04:07.362Z,25.55
2017-02-15T14:05:17.724Z,25.84
2017-02-15T14:06:27.605Z,25.74
2017-02-15T14:07:38.003Z,26.6
2017-02-15T14:08:48.705Z,27.26
2017-02-15T14:09:59.032Z,27.16
2017-02-15T14:11:09.334Z,27.45
2017-02-15T14:12:19.224Z,27.64
2017-02-15T14:13:29.564Z,27.83
2017-02-15T14:14:40.136Z,28.11
2017-02-15T14:15:50.467Z,28.39
2017-02-15T14:17:00.774Z,28.77
2017-02-15T14:18:11.066Z,28.87
2017-02-15T14:19:21.353Z,29.06
2017-02-15T14:20:31.523Z,29.63
2017-02-15T14:21:41.392Z,29.63
2017-02-15T14:22:51.737Z,29.83
2017-02-15T14:24:01.630Z,29.81
2017-02-15T14:25:11.945Z,30
2017-02-15T14:26:22.087Z,30.29
2017-02-15T14:27:31.958Z,30.48
2017-02-15T14:28:42.242Z,30.86
2017-02-15T14:29:52.562Z,30.86
2017-02-15T14:31:02.859Z,30.96
2017-02-15T14:32:13.474Z,31.15
2017-02-15T14:33:23.347Z,31.43
2017-02-15T14:34:33.662Z,31.32
2017-02-15T14:35:43.165Z,31.99
2017-02-15T14:36:53.170Z,31.9
2017-02-15T14:38:03.692Z,31.71
2017-02-15T14:39:13.583Z,31.99
2017-02-15T14:40:23.858Z,32.37
2017-02-15T14:41:34.132Z,32.47
2017-02-15T14:42:43.994Z,32.76
2017-02-15T14:43:54.503Z,32.74
2017-02-15T14:45:04.407Z,32.95
2017-02-15T14:46:14.786Z,32.76
2017-02-15T14:47:24.708Z,33.14
2017-02-15T14:48:35.033Z,32.95
2017-02-15T14:49:45.718Z,33.04
2017-02-15T14:50:55.193Z,33.04
2017-02-15T14:52:05.208Z,33.23
2017-02-15T14:53:15.073Z,33.04
2017-02-15T14:54:25.016Z,33.41
2017-02-15T14:55:34.721Z,33.62
2017-02-15T14:56:44.211Z,33.89
2017-02-15T14:57:54.090Z,33.91
2017-02-15T14:59:04.443Z,33.89
2017-02-15T15:00:14.778Z,33.79
2017-02-15T15:01:24.906Z,33.89
2017-02-15T15:02:35.177Z,34.17
2017-02-15T15:03:45.094Z,34.46
2017-02-15T15:04:55.394Z,34.36
2017-02-15T15:06:05.744Z,34.46
2017-02-15T15:07:16.008Z,34.65
2017-02-15T15:08:25.518Z,34.75